sensor_id;sensor_type;location;lat;lon;timestamp;temperature;humidity
4637;DHT22;2331;48.806;9.140;2022-12-19T00:00:42;0.60;1.00
4637;DHT22;2331;48.806;9.140;2022-12-19T00:03:08;0.70;1.00
4637;DHT22;2331;48.806;9.140;2022-12-19T00:05:37;0.70;1.00
4637;DHT22;2331;48.806;9.140;2022-12-19T00:08:05;0.80;1.00
4637;DHT22;2331;48.806;9.140;2022-12-19T00:10:31;0.80;1.00
4637;DHT22;2331;48.806;9.140;2022-12-19T00:12:58;0.80;1.00
4637;DHT22;2331;48.806;9.140;2022-12-19T00:15:25;0.80;1.00
4637;DHT22;2331;48.806;9.140;2022-12-19T00:17:52;0.80;1.00
4637;DHT22;2331;48.806;9.140;2022-12-19T00:20:19;0.80;1.00
4637;DHT22;2331;48.806;9.140;2022-12-19T00:22:47;0.80;1.00
4637;DHT22;2331;48.806;9.140;2022-12-19T00:25:13;0.90;1.00
4637;DHT22;2331;48.806;9.140;2022-12-19T00:27:40;0.90;1.00
4637;DHT22;2331;48.806;9.140;2022-12-19T00:30:08;1.00;1.00
4637;DHT22;2331;48.806;9.140;2022-12-19T00:32:36;1.00;1.00
4637;DHT22;2331;48.806;9.140;2022-12-19T00:35:03;1.00;1.00
4637;DHT22;2331;48.806;9.140;2022-12-19T00:37:30;1.00;1.00
4637;DHT22;2331;48.806;9.140;2022-12-19T00:39:58;1.00;1.00
4637;DHT22;2331;48.806;9.140;2022-12-19T00:42:24;1.00;1.00
4637;DHT22;2331;48.806;9.140;2022-12-19T00:44:51;1.00;1.00
4637;DHT22;2331;48.806;9.140;2022-12-19T00:47:18;1.00;1.00
4637;DHT22;2331;48.806;9.140;2022-12-19T00:49:44;1.00;1.00
4637;DHT22;2331;48.806;9.140;2022-12-19T00:52:11;1.00;1.00
4637;DHT22;2331;48.806;9.140;2022-12-19T00:54:38;1.00;1.00
4637;DHT22;2331;48.806;9.140;2022-12-19T00:57:06;1.10;1.00
4637;DHT22;2331;48.806;9.140;2022-12-19T00:59:33;1.10;1.00
4637;DHT22;2331;48.806;9.140;2022-12-19T01:01:59;1.10;1.00
4637;DHT22;2331;48.806;9.140;2022-12-19T01:04:26;1.10;1.00
4637;DHT22;2331;48.806;9.140;2022-12-19T01:06:53;1.10;1.00
4637;DHT22;2331;48.806;9.140;2022-12-19T01:09:20;1.10;1.00
4637;DHT22;2331;48.806;9.140;2022-12-19T01:11:48;1.10;1.00
4637;DHT22;2331;48.806;9.140;2022-12-19T01:14:34;1.00;1.00
4637;DHT22;2331;48.806;9.140;2022-12-19T01:17:00;1.10;1.00
4637;DHT22;2331;48.806;9.140;2022-12-19T01:19:27;1.00;1.00
4637;DHT22;2331;48.806;9.140;2022-12-19T01:21:54;1.00;1.00
4637;DHT22;2331;48.806;9.140;2022-12-19T01:24:20;1.00;1.00
4637;DHT22;2331;48.806;9.140;2022-12-19T01:26:47;1.10;1.00
4637;DHT22;2331;48.806;9.140;2022-12-19T01:29:14;1.00;1.00
4637;DHT22;2331;48.806;9.140;2022-12-19T01:31:42;1.10;1.00
4637;DHT22;2331;48.806;9.140;2022-12-19T01:34:08;1.10;1.00
4637;DHT22;2331;48.806;9.140;2022-12-19T01:36:35;1.10;1.00
4637;DHT22;2331;48.806;9.140;2022-12-19T01:39:02;1.20;1.00
4637;DHT22;2331;48.806;9.140;2022-12-19T01:41:29;1.20;1.00
4637;DHT22;2331;48.806;9.140;2022-12-19T01:43:57;1.20;1.00
4637;DHT22;2331;48.806;9.140;2022-12-19T01:46:26;1.30;1.00
4637;DHT22;2331;48.806;9.140;2022-12-19T01:48:56;1.20;1.00
4637;DHT22;2331;48.806;9.140;2022-12-19T01:51:27;1.30;1.00
4637;DHT22;2331;48.806;9.140;2022-12-19T01:53:58;1.30;1.00
4637;DHT22;2331;48.806;9.140;2022-12-19T01:56:29;1.30;1.00
4637;DHT22;2331;48.806;9.140;2022-12-19T01:58:59;1.40;1.00
4637;DHT22;2331;48.806;9.140;2022-12-19T02:01:28;1.40;1.00
4637;DHT22;2331;48.806;9.140;2022-12-19T02:03:57;1.40;1.00
4637;DHT22;2331;48.806;9.140;2022-12-19T02:06:25;1.40;1.00
4637;DHT22;2331;48.806;9.140;2022-12-19T02:08:53;1.40;1.00
4637;DHT22;2331;48.806;9.140;2022-12-19T02:11:21;1.40;1.00
4637;DHT22;2331;48.806;9.140;2022-12-19T02:13:48;1.40;1.00
4637;DHT22;2331;48.806;9.140;2022-12-19T02:16:22;1.40;1.00
4637;DHT22;2331;48.806;9.140;2022-12-19T02:18:55;1.40;1.00
4637;DHT22;2331;48.806;9.140;2022-12-19T02:21:34;1.50;1.00
4637;DHT22;2331;48.806;9.140;2022-12-19T02:27:37;1.50;1.00
4637;DHT22;2331;48.806;9.140;2022-12-19T02:30:12;1.50;1.00
4637;DHT22;2331;48.806;9.140;2022-12-19T02:32:47;1.50;1.00
4637;DHT22;2331;48.806;9.140;2022-12-19T02:35:22;1.50;1.00
4637;DHT22;2331;48.806;9.140;2022-12-19T02:37:55;1.50;1.00
4637;DHT22;2331;48.806;9.140;2022-12-19T02:40:26;1.50;1.00
4637;DHT22;2331;48.806;9.140;2022-12-19T02:42:58;1.60;1.00
4637;DHT22;2331;48.806;9.140;2022-12-19T02:45:26;1.60;1.00
4637;DHT22;2331;48.806;9.140;2022-12-19T02:47:57;1.60;1.00
4637;DHT22;2331;48.806;9.140;2022-12-19T02:50:24;1.60;1.00
4637;DHT22;2331;48.806;9.140;2022-12-19T02:52:51;1.70;1.00
4637;DHT22;2331;48.806;9.140;2022-12-19T02:55:21;1.70;1.00
4637;DHT22;2331;48.806;9.140;2022-12-19T02:58:17;1.70;1.00
4637;DHT22;2331;48.806;9.140;2022-12-19T03:00:55;1.80;1.00
4637;DHT22;2331;48.806;9.140;2022-12-19T03:03:33;1.70;1.00
4637;DHT22;2331;48.806;9.140;2022-12-19T03:06:11;1.80;1.00
4637;DHT22;2331;48.806;9.140;2022-12-19T03:08:45;1.90;1.00
4637;DHT22;2331;48.806;9.140;2022-12-19T03:11:13;1.90;1.00
4637;DHT22;2331;48.806;9.140;2022-12-19T03:13:44;2.00;1.00
4637;DHT22;2331;48.806;9.140;2022-12-19T03:16:11;1.90;1.00
4637;DHT22;2331;48.806;9.140;2022-12-19T03:18:41;1.90;1.00
4637;DHT22;2331;48.806;9.140;2022-12-19T03:21:12;1.80;1.00
4637;DHT22;2331;48.806;9.140;2022-12-19T03:23:40;1.90;1.00
4637;DHT22;2331;48.806;9.140;2022-12-19T03:26:10;1.90;1.00
4637;DHT22;2331;48.806;9.140;2022-12-19T03:28:41;1.90;1.00
4637;DHT22;2331;48.806;9.140;2022-12-19T03:31:09;1.90;1.00
4637;DHT22;2331;48.806;9.140;2022-12-19T03:33:39;1.90;1.00
4637;DHT22;2331;48.806;9.140;2022-12-19T03:36:11;1.90;1.00
4637;DHT22;2331;48.806;9.140;2022-12-19T03:38:39;2.00;1.00
4637;DHT22;2331;48.806;9.140;2022-12-19T03:41:10;2.00;1.00
4637;DHT22;2331;48.806;9.140;2022-12-19T03:43:39;2.00;1.00
4637;DHT22;2331;48.806;9.140;2022-12-19T03:46:12;1.90;1.00
4637;DHT22;2331;48.806;9.140;2022-12-19T03:48:45;1.90;1.00
4637;DHT22;2331;48.806;9.140;2022-12-19T03:51:19;2.00;1.00
4637;DHT22;2331;48.806;9.140;2022-12-19T03:53:56;2.00;1.00
4637;DHT22;2331;48.806;9.140;2022-12-19T03:56:31;2.00;1.00
4637;DHT22;2331;48.806;9.140;2022-12-19T03:59:07;2.00;1.00
4637;DHT22;2331;48.806;9.140;2022-12-19T04:01:35;2.00;1.00
4637;DHT22;2331;48.806;9.140;2022-12-19T04:04:05;2.10;1.00
4637;DHT22;2331;48.806;9.140;2022-12-19T04:06:33;2.10;1.00
4637;DHT22;2331;48.806;9.140;2022-12-19T04:09:01;2.10;1.00
4637;DHT22;2331;48.806;9.140;2022-12-19T04:11:33;2.10;1.00
4637;DHT22;2331;48.806;9.140;2022-12-19T04:14:04;2.20;1.00
4637;DHT22;2331;48.806;9.140;2022-12-19T04:16:37;2.20;1.00
4637;DHT22;2331;48.806;9.140;2022-12-19T04:19:10;2.20;1.00
4637;DHT22;2331;48.806;9.140;2022-12-19T04:21:42;2.30;1.00
4637;DHT22;2331;48.806;9.140;2022-12-19T04:24:13;2.40;1.00
4637;DHT22;2331;48.806;9.140;2022-12-19T04:26:43;2.30;1.00
4637;DHT22;2331;48.806;9.140;2022-12-19T04:29:13;2.40;1.00
4637;DHT22;2331;48.806;9.140;2022-12-19T04:31:40;2.50;1.00
4637;DHT22;2331;48.806;9.140;2022-12-19T04:34:08;2.50;1.00
4637;DHT22;2331;48.806;9.140;2022-12-19T04:36:35;2.50;1.00
4637;DHT22;2331;48.806;9.140;2022-12-19T04:39:02;2.60;1.00
4637;DHT22;2331;48.806;9.140;2022-12-19T04:41:29;2.50;1.00
4637;DHT22;2331;48.806;9.140;2022-12-19T04:43:56;2.50;1.00
4637;DHT22;2331;48.806;9.140;2022-12-19T04:46:22;2.50;1.00
4637;DHT22;2331;48.806;9.140;2022-12-19T04:48:49;2.50;1.00
4637;DHT22;2331;48.806;9.140;2022-12-19T04:51:17;2.50;1.00
4637;DHT22;2331;48.806;9.140;2022-12-19T04:53:44;2.50;1.00
4637;DHT22;2331;48.806;9.140;2022-12-19T04:56:11;2.60;1.00
4637;DHT22;2331;48.806;9.140;2022-12-19T04:58:37;2.60;1.00
4637;DHT22;2331;48.806;9.140;2022-12-19T05:01:05;2.70;1.00
4637;DHT22;2331;48.806;9.140;2022-12-19T05:03:33;2.70;1.00
4637;DHT22;2331;48.806;9.140;2022-12-19T05:06:04;2.70;1.00
4637;DHT22;2331;48.806;9.140;2022-12-19T05:08:33;2.70;1.00
4637;DHT22;2331;48.806;9.140;2022-12-19T05:11:00;2.80;1.00
4637;DHT22;2331;48.806;9.140;2022-12-19T05:13:27;2.80;1.00
4637;DHT22;2331;48.806;9.140;2022-12-19T05:15:55;2.90;1.00
4637;DHT22;2331;48.806;9.140;2022-12-19T05:18:22;2.90;1.00
4637;DHT22;2331;48.806;9.140;2022-12-19T05:20:49;3.00;1.00
4637;DHT22;2331;48.806;9.140;2022-12-19T05:23:16;3.00;1.00
4637;DHT22;2331;48.806;9.140;2022-12-19T05:25:45;3.10;1.00
4637;DHT22;2331;48.806;9.140;2022-12-19T05:28:12;3.10;1.00
4637;DHT22;2331;48.806;9.140;2022-12-19T05:30:39;3.10;1.00
4637;DHT22;2331;48.806;9.140;2022-12-19T05:33:06;3.10;1.00
4637;DHT22;2331;48.806;9.140;2022-12-19T05:35:33;3.10;1.00
4637;DHT22;2331;48.806;9.140;2022-12-19T05:38:01;3.10;1.00
4637;DHT22;2331;48.806;9.140;2022-12-19T05:40:28;3.20;1.00
4637;DHT22;2331;48.806;9.140;2022-12-19T05:42:56;3.30;1.00
4637;DHT22;2331;48.806;9.140;2022-12-19T05:45:23;3.30;1.00
4637;DHT22;2331;48.806;9.140;2022-12-19T05:47:50;3.30;1.00
4637;DHT22;2331;48.806;9.140;2022-12-19T05:50:17;3.30;1.00
4637;DHT22;2331;48.806;9.140;2022-12-19T05:52:43;3.30;1.00
4637;DHT22;2331;48.806;9.140;2022-12-19T05:55:10;3.30;1.00
4637;DHT22;2331;48.806;9.140;2022-12-19T05:57:37;3.40;1.00
4637;DHT22;2331;48.806;9.140;2022-12-19T06:00:07;3.40;1.00
4637;DHT22;2331;48.806;9.140;2022-12-19T06:02:34;3.40;1.00
4637;DHT22;2331;48.806;9.140;2022-12-19T06:05:01;3.40;1.00
4637;DHT22;2331;48.806;9.140;2022-12-19T06:07:28;3.50;1.00
4637;DHT22;2331;48.806;9.140;2022-12-19T06:09:55;3.50;1.00
4637;DHT22;2331;48.806;9.140;2022-12-19T06:12:21;3.50;1.00
4637;DHT22;2331;48.806;9.140;2022-12-19T06:14:48;3.60;1.00
4637;DHT22;2331;48.806;9.140;2022-12-19T06:17:16;3.60;1.00
4637;DHT22;2331;48.806;9.140;2022-12-19T06:19:43;3.60;1.00
4637;DHT22;2331;48.806;9.140;2022-12-19T06:22:10;3.60;1.00
4637;DHT22;2331;48.806;9.140;2022-12-19T06:24:37;3.60;1.00
4637;DHT22;2331;48.806;9.140;2022-12-19T06:27:04;3.60;1.00
4637;DHT22;2331;48.806;9.140;2022-12-19T06:29:30;3.70;1.00
4637;DHT22;2331;48.806;9.140;2022-12-19T06:31:57;3.70;1.00
4637;DHT22;2331;48.806;9.140;2022-12-19T06:34:25;3.70;1.00
4637;DHT22;2331;48.806;9.140;2022-12-19T06:36:52;3.80;1.00
4637;DHT22;2331;48.806;9.140;2022-12-19T06:39:19;3.80;1.00
4637;DHT22;2331;48.806;9.140;2022-12-19T06:41:46;3.80;1.00
4637;DHT22;2331;48.806;9.140;2022-12-19T06:44:42;3.80;1.00
4637;DHT22;2331;48.806;9.140;2022-12-19T06:47:08;3.90;1.00
4637;DHT22;2331;48.806;9.140;2022-12-19T06:49:36;3.90;1.00
4637;DHT22;2331;48.806;9.140;2022-12-19T06:52:03;3.90;1.00
4637;DHT22;2331;48.806;9.140;2022-12-19T06:54:30;3.90;1.00
4637;DHT22;2331;48.806;9.140;2022-12-19T06:56:57;3.80;1.00
4637;DHT22;2331;48.806;9.140;2022-12-19T06:59:23;3.90;1.00
4637;DHT22;2331;48.806;9.140;2022-12-19T07:01:54;3.80;1.00
4637;DHT22;2331;48.806;9.140;2022-12-19T07:04:25;3.80;1.00
4637;DHT22;2331;48.806;9.140;2022-12-19T07:06:55;3.80;1.00
4637;DHT22;2331;48.806;9.140;2022-12-19T07:09:22;3.70;1.00
4637;DHT22;2331;48.806;9.140;2022-12-19T07:11:49;3.80;1.00
4637;DHT22;2331;48.806;9.140;2022-12-19T07:14:15;3.80;1.00
4637;DHT22;2331;48.806;9.140;2022-12-19T07:16:44;3.80;1.00
4637;DHT22;2331;48.806;9.140;2022-12-19T07:19:11;3.80;1.00
4637;DHT22;2331;48.806;9.140;2022-12-19T07:21:39;3.80;1.00
4637;DHT22;2331;48.806;9.140;2022-12-19T07:24:08;3.90;1.00
4637;DHT22;2331;48.806;9.140;2022-12-19T07:26:35;3.90;1.00
4637;DHT22;2331;48.806;9.140;2022-12-19T07:29:02;3.90;1.00
4637;DHT22;2331;48.806;9.140;2022-12-19T07:31:29;3.90;1.00
4637;DHT22;2331;48.806;9.140;2022-12-19T07:33:56;4.00;1.00
4637;DHT22;2331;48.806;9.140;2022-12-19T07:36:23;4.00;1.00
4637;DHT22;2331;48.806;9.140;2022-12-19T07:38:50;3.90;1.00
4637;DHT22;2331;48.806;9.140;2022-12-19T07:41:18;4.00;1.00
4637;DHT22;2331;48.806;9.140;2022-12-19T07:43:44;4.00;1.00
4637;DHT22;2331;48.806;9.140;2022-12-19T07:46:11;3.90;1.00
4637;DHT22;2331;48.806;9.140;2022-12-19T07:48:39;4.00;1.00
4637;DHT22;2331;48.806;9.140;2022-12-19T07:51:05;4.00;1.00
4637;DHT22;2331;48.806;9.140;2022-12-19T07:53:32;4.00;1.00
4637;DHT22;2331;48.806;9.140;2022-12-19T07:55:59;4.00;1.00
4637;DHT22;2331;48.806;9.140;2022-12-19T07:58:27;4.10;1.00
4637;DHT22;2331;48.806;9.140;2022-12-19T08:00:54;4.10;1.00
4637;DHT22;2331;48.806;9.140;2022-12-19T08:03:21;4.20;1.00
4637;DHT22;2331;48.806;9.140;2022-12-19T08:05:49;4.20;1.00
4637;DHT22;2331;48.806;9.140;2022-12-19T08:08:16;4.30;1.00
4637;DHT22;2331;48.806;9.140;2022-12-19T08:10:42;4.30;1.00
4637;DHT22;2331;48.806;9.140;2022-12-19T08:13:09;4.30;1.00
4637;DHT22;2331;48.806;9.140;2022-12-19T08:15:37;4.30;1.00
4637;DHT22;2331;48.806;9.140;2022-12-19T08:18:05;4.40;1.00
4637;DHT22;2331;48.806;9.140;2022-12-19T08:20:31;4.30;1.00
4637;DHT22;2331;48.806;9.140;2022-12-19T08:22:58;4.30;1.00
4637;DHT22;2331;48.806;9.140;2022-12-19T08:25:25;4.30;1.00
4637;DHT22;2331;48.806;9.140;2022-12-19T08:27:51;4.30;1.00
4637;DHT22;2331;48.806;9.140;2022-12-19T08:30:18;4.40;1.00
4637;DHT22;2331;48.806;9.140;2022-12-19T08:32:46;4.40;1.00
4637;DHT22;2331;48.806;9.140;2022-12-19T08:35:13;4.40;1.00
4637;DHT22;2331;48.806;9.140;2022-12-19T08:37:40;4.40;1.00
4637;DHT22;2331;48.806;9.140;2022-12-19T08:40:07;4.40;1.00
4637;DHT22;2331;48.806;9.140;2022-12-19T08:42:34;4.40;1.00
4637;DHT22;2331;48.806;9.140;2022-12-19T08:45:01;4.40;1.00
4637;DHT22;2331;48.806;9.140;2022-12-19T08:47:28;4.50;1.00
4637;DHT22;2331;48.806;9.140;2022-12-19T08:49:56;4.40;1.00
4637;DHT22;2331;48.806;9.140;2022-12-19T08:52:23;4.60;1.00
4637;DHT22;2331;48.806;9.140;2022-12-19T08:54:49;4.60;1.00
4637;DHT22;2331;48.806;9.140;2022-12-19T08:57:16;4.70;1.00
4637;DHT22;2331;48.806;9.140;2022-12-19T08:59:43;4.60;1.00
4637;DHT22;2331;48.806;9.140;2022-12-19T09:02:09;4.70;1.00
4637;DHT22;2331;48.806;9.140;2022-12-19T09:04:36;4.70;1.00
4637;DHT22;2331;48.806;9.140;2022-12-19T09:07:04;4.70;1.00
4637;DHT22;2331;48.806;9.140;2022-12-19T09:09:31;4.70;1.00
4637;DHT22;2331;48.806;9.140;2022-12-19T09:11:58;4.70;1.00
4637;DHT22;2331;48.806;9.140;2022-12-19T09:14:24;4.70;1.00
4637;DHT22;2331;48.806;9.140;2022-12-19T09:16:51;4.80;1.00
4637;DHT22;2331;48.806;9.140;2022-12-19T09:19:18;4.80;1.00
4637;DHT22;2331;48.806;9.140;2022-12-19T09:21:44;4.80;1.00
4637;DHT22;2331;48.806;9.140;2022-12-19T09:24:12;4.80;1.00
4637;DHT22;2331;48.806;9.140;2022-12-19T09:26:39;4.80;1.00
4637;DHT22;2331;48.806;9.140;2022-12-19T09:29:07;4.90;1.00
4637;DHT22;2331;48.806;9.140;2022-12-19T09:31:34;4.90;1.00
4637;DHT22;2331;48.806;9.140;2022-12-19T09:34:01;4.90;1.00
4637;DHT22;2331;48.806;9.140;2022-12-19T09:36:28;5.00;1.00
4637;DHT22;2331;48.806;9.140;2022-12-19T09:38:56;5.00;1.00
4637;DHT22;2331;48.806;9.140;2022-12-19T09:41:39;5.10;1.00
4637;DHT22;2331;48.806;9.140;2022-12-19T09:44:19;5.10;1.00
4637;DHT22;2331;48.806;9.140;2022-12-19T09:46:52;5.20;1.00
4637;DHT22;2331;48.806;9.140;2022-12-19T09:49:23;5.10;1.00
4637;DHT22;2331;48.806;9.140;2022-12-19T09:52:02;5.20;1.00
4637;DHT22;2331;48.806;9.140;2022-12-19T09:54:35;5.10;1.00
4637;DHT22;2331;48.806;9.140;2022-12-19T09:57:13;5.20;1.00
4637;DHT22;2331;48.806;9.140;2022-12-19T09:59:44;5.20;1.00
4637;DHT22;2331;48.806;9.140;2022-12-19T10:02:25;5.30;1.00
4637;DHT22;2331;48.806;9.140;2022-12-19T10:04:56;5.30;1.00
4637;DHT22;2331;48.806;9.140;2022-12-19T10:07:38;5.30;1.00
4637;DHT22;2331;48.806;9.140;2022-12-19T10:10:33;5.30;1.00
4637;DHT22;2331;48.806;9.140;2022-12-19T10:13:19;5.50;1.00
4637;DHT22;2331;48.806;9.140;2022-12-19T10:15:54;5.50;1.00
4637;DHT22;2331;48.806;9.140;2022-12-19T10:18:34;5.60;1.00
4637;DHT22;2331;48.806;9.140;2022-12-19T10:21:06;5.60;1.00
4637;DHT22;2331;48.806;9.140;2022-12-19T10:23:46;5.70;1.00
4637;DHT22;2331;48.806;9.140;2022-12-19T10:26:18;5.80;1.00
4637;DHT22;2331;48.806;9.140;2022-12-19T10:28:57;5.80;1.00
4637;DHT22;2331;48.806;9.140;2022-12-19T10:31:32;5.80;1.00
4637;DHT22;2331;48.806;9.140;2022-12-19T10:34:05;5.90;1.00
4637;DHT22;2331;48.806;9.140;2022-12-19T10:36:42;6.00;1.00
4637;DHT22;2331;48.806;9.140;2022-12-19T10:39:15;6.00;1.00
4637;DHT22;2331;48.806;9.140;2022-12-19T10:41:51;6.10;1.00
4637;DHT22;2331;48.806;9.140;2022-12-19T10:44:23;6.10;1.00
4637;DHT22;2331;48.806;9.140;2022-12-19T10:46:52;6.20;1.00
4637;DHT22;2331;48.806;9.140;2022-12-19T10:49:20;6.30;1.00
4637;DHT22;2331;48.806;9.140;2022-12-19T10:51:56;6.30;1.00
4637;DHT22;2331;48.806;9.140;2022-12-19T10:54:36;6.40;1.00
4637;DHT22;2331;48.806;9.140;2022-12-19T10:57:22;6.40;1.00
4637;DHT22;2331;48.806;9.140;2022-12-19T10:59:55;6.40;1.00
4637;DHT22;2331;48.806;9.140;2022-12-19T11:02:33;6.50;1.00
4637;DHT22;2331;48.806;9.140;2022-12-19T11:05:00;6.50;1.00
4637;DHT22;2331;48.806;9.140;2022-12-19T11:07:27;6.60;1.00
4637;DHT22;2331;48.806;9.140;2022-12-19T11:09:54;6.60;1.00
4637;DHT22;2331;48.806;9.140;2022-12-19T11:12:24;6.60;1.00
4637;DHT22;2331;48.806;9.140;2022-12-19T11:15:08;6.60;1.00
4637;DHT22;2331;48.806;9.140;2022-12-19T11:17:38;6.70;1.00
4637;DHT22;2331;48.806;9.140;2022-12-19T11:20:11;6.70;1.00
4637;DHT22;2331;48.806;9.140;2022-12-19T11:22:38;6.70;1.00
4637;DHT22;2331;48.806;9.140;2022-12-19T11:25:14;6.70;1.00
4637;DHT22;2331;48.806;9.140;2022-12-19T11:27:43;6.80;1.00
4637;DHT22;2331;48.806;9.140;2022-12-19T11:30:20;6.80;1.00
4637;DHT22;2331;48.806;9.140;2022-12-19T11:32:48;6.80;1.00
4637;DHT22;2331;48.806;9.140;2022-12-19T11:35:31;6.90;1.00
4637;DHT22;2331;48.806;9.140;2022-12-19T11:38:00;6.90;1.00
4637;DHT22;2331;48.806;9.140;2022-12-19T11:40:32;6.90;1.00
4637;DHT22;2331;48.806;9.140;2022-12-19T11:43:05;7.00;1.00
4637;DHT22;2331;48.806;9.140;2022-12-19T11:45:42;7.10;1.00
4637;DHT22;2331;48.806;9.140;2022-12-19T11:48:14;7.20;1.00
4637;DHT22;2331;48.806;9.140;2022-12-19T11:50:53;7.30;1.00
4637;DHT22;2331;48.806;9.140;2022-12-19T11:53:26;7.30;1.00
4637;DHT22;2331;48.806;9.140;2022-12-19T11:55:56;7.40;1.00
4637;DHT22;2331;48.806;9.140;2022-12-19T11:58:26;7.40;1.00
4637;DHT22;2331;48.806;9.140;2022-12-19T12:01:06;7.40;1.00
4637;DHT22;2331;48.806;9.140;2022-12-19T12:03:43;7.50;1.00
4637;DHT22;2331;48.806;9.140;2022-12-19T12:06:16;7.50;1.00
4637;DHT22;2331;48.806;9.140;2022-12-19T12:08:57;7.60;1.00
4637;DHT22;2331;48.806;9.140;2022-12-19T12:11:36;7.60;1.00
4637;DHT22;2331;48.806;9.140;2022-12-19T12:14:15;7.70;1.00
4637;DHT22;2331;48.806;9.140;2022-12-19T12:17:03;7.70;1.00
4637;DHT22;2331;48.806;9.140;2022-12-19T12:19:50;7.80;1.00
4637;DHT22;2331;48.806;9.140;2022-12-19T12:22:34;7.80;1.00
4637;DHT22;2331;48.806;9.140;2022-12-19T12:25:12;7.90;1.00
4637;DHT22;2331;48.806;9.140;2022-12-19T12:27:51;7.90;1.00
4637;DHT22;2331;48.806;9.140;2022-12-19T12:30:22;8.00;1.00
4637;DHT22;2331;48.806;9.140;2022-12-19T12:33:01;8.00;1.00
4637;DHT22;2331;48.806;9.140;2022-12-19T12:35:34;8.10;1.00
4637;DHT22;2331;48.806;9.140;2022-12-19T12:38:15;8.00;1.00
4637;DHT22;2331;48.806;9.140;2022-12-19T12:40:59;8.00;1.00
4637;DHT22;2331;48.806;9.140;2022-12-19T12:43:43;8.00;1.00
4637;DHT22;2331;48.806;9.140;2022-12-19T12:46:14;8.00;1.00
4637;DHT22;2331;48.806;9.140;2022-12-19T12:48:46;8.00;1.00
4637;DHT22;2331;48.806;9.140;2022-12-19T12:51:16;8.00;1.00
4637;DHT22;2331;48.806;9.140;2022-12-19T12:53:45;8.10;1.00
4637;DHT22;2331;48.806;9.140;2022-12-19T12:56:15;8.10;1.00
4637;DHT22;2331;48.806;9.140;2022-12-19T13:01:32;8.10;1.00
4637;DHT22;2331;48.806;9.140;2022-12-19T13:04:06;8.10;1.00
4637;DHT22;2331;48.806;9.140;2022-12-19T13:06:34;8.10;1.00
4637;DHT22;2331;48.806;9.140;2022-12-19T13:09:04;8.10;1.00
4637;DHT22;2331;48.806;9.140;2022-12-19T13:11:47;8.20;1.00
4637;DHT22;2331;48.806;9.140;2022-12-19T13:14:44;8.30;1.00
4637;DHT22;2331;48.806;9.140;2022-12-19T13:17:12;8.30;1.00
4637;DHT22;2331;48.806;9.140;2022-12-19T13:19:54;8.40;1.00
4637;DHT22;2331;48.806;9.140;2022-12-19T13:22:36;8.40;1.00
4637;DHT22;2331;48.806;9.140;2022-12-19T13:25:45;8.40;1.00
4637;DHT22;2331;48.806;9.140;2022-12-19T13:28:31;8.40;1.00
4637;DHT22;2331;48.806;9.140;2022-12-19T13:31:17;8.50;1.00
4637;DHT22;2331;48.806;9.140;2022-12-19T13:36:52;8.60;1.00
4637;DHT22;2331;48.806;9.140;2022-12-19T13:39:27;8.80;1.00
4637;DHT22;2331;48.806;9.140;2022-12-19T13:42:04;8.70;1.00
4637;DHT22;2331;48.806;9.140;2022-12-19T13:44:53;8.70;1.00
4637;DHT22;2331;48.806;9.140;2022-12-19T13:47:21;8.70;1.00
4637;DHT22;2331;48.806;9.140;2022-12-19T13:49:49;8.80;1.00
4637;DHT22;2331;48.806;9.140;2022-12-19T13:52:17;8.70;1.00
4637;DHT22;2331;48.806;9.140;2022-12-19T13:54:46;8.70;1.00
4637;DHT22;2331;48.806;9.140;2022-12-19T13:57:20;8.80;1.00
4637;DHT22;2331;48.806;9.140;2022-12-19T13:59:48;8.70;1.00
4637;DHT22;2331;48.806;9.140;2022-12-19T14:02:18;8.80;1.00
4637;DHT22;2331;48.806;9.140;2022-12-19T14:04:50;8.80;1.00
4637;DHT22;2331;48.806;9.140;2022-12-19T14:07:27;8.90;1.00
4637;DHT22;2331;48.806;9.140;2022-12-19T14:09:55;8.90;1.00
4637;DHT22;2331;48.806;9.140;2022-12-19T14:12:24;8.90;1.00
4637;DHT22;2331;48.806;9.140;2022-12-19T14:15:25;9.00;1.00
4637;DHT22;2331;48.806;9.140;2022-12-19T14:17:53;8.90;1.00
4637;DHT22;2331;48.806;9.140;2022-12-19T14:20:22;9.00;1.00
4637;DHT22;2331;48.806;9.140;2022-12-19T14:22:55;8.90;1.00
4637;DHT22;2331;48.806;9.140;2022-12-19T14:25:22;8.80;1.00
4637;DHT22;2331;48.806;9.140;2022-12-19T14:27:51;8.80;1.00
4637;DHT22;2331;48.806;9.140;2022-12-19T14:30:22;8.80;1.00
4637;DHT22;2331;48.806;9.140;2022-12-19T14:32:52;8.80;1.00
4637;DHT22;2331;48.806;9.140;2022-12-19T14:35:21;8.90;1.00
4637;DHT22;2331;48.806;9.140;2022-12-19T14:37:59;8.90;1.00
4637;DHT22;2331;48.806;9.140;2022-12-19T14:40:28;8.90;1.00
4637;DHT22;2331;48.806;9.140;2022-12-19T14:42:57;9.00;1.00
4637;DHT22;2331;48.806;9.140;2022-12-19T14:45:43;8.90;1.00
4637;DHT22;2331;48.806;9.140;2022-12-19T14:48:28;8.90;1.00
4637;DHT22;2331;48.806;9.140;2022-12-19T14:51:09;8.90;1.00
4637;DHT22;2331;48.806;9.140;2022-12-19T14:53:39;8.80;1.00
4637;DHT22;2331;48.806;9.140;2022-12-19T14:56:08;8.80;1.00
4637;DHT22;2331;48.806;9.140;2022-12-19T14:58:37;8.80;1.00
4637;DHT22;2331;48.806;9.140;2022-12-19T15:01:17;8.80;1.00
4637;DHT22;2331;48.806;9.140;2022-12-19T15:03:50;8.80;1.00
4637;DHT22;2331;48.806;9.140;2022-12-19T15:06:18;8.80;1.00
4637;DHT22;2331;48.806;9.140;2022-12-19T15:08:49;8.70;1.00
4637;DHT22;2331;48.806;9.140;2022-12-19T15:11:25;8.50;1.00
4637;DHT22;2331;48.806;9.140;2022-12-19T15:14:10;8.40;1.00
4637;DHT22;2331;48.806;9.140;2022-12-19T15:16:37;8.40;1.00
4637;DHT22;2331;48.806;9.140;2022-12-19T15:19:10;8.30;1.00
4637;DHT22;2331;48.806;9.140;2022-12-19T15:21:37;8.30;1.00
4637;DHT22;2331;48.806;9.140;2022-12-19T15:24:05;8.30;1.00
4637;DHT22;2331;48.806;9.140;2022-12-19T15:26:33;8.20;1.00
4637;DHT22;2331;48.806;9.140;2022-12-19T15:29:02;8.20;1.00
4637;DHT22;2331;48.806;9.140;2022-12-19T15:31:32;8.20;1.00
4637;DHT22;2331;48.806;9.140;2022-12-19T15:33:59;8.20;1.00
4637;DHT22;2331;48.806;9.140;2022-12-19T15:36:26;8.20;1.00
4637;DHT22;2331;48.806;9.140;2022-12-19T15:38:53;8.20;1.00
4637;DHT22;2331;48.806;9.140;2022-12-19T15:41:23;8.20;1.00
4637;DHT22;2331;48.806;9.140;2022-12-19T15:43:51;8.20;1.00
4637;DHT22;2331;48.806;9.140;2022-12-19T15:46:18;8.10;1.00
4637;DHT22;2331;48.806;9.140;2022-12-19T15:48:48;8.10;1.00
4637;DHT22;2331;48.806;9.140;2022-12-19T15:51:15;8.10;1.00
4637;DHT22;2331;48.806;9.140;2022-12-19T15:53:42;8.10;1.00
4637;DHT22;2331;48.806;9.140;2022-12-19T15:56:24;8.00;1.00
4637;DHT22;2331;48.806;9.140;2022-12-19T15:58:53;7.90;1.00
4637;DHT22;2331;48.806;9.140;2022-12-19T16:01:21;7.90;1.00
4637;DHT22;2331;48.806;9.140;2022-12-19T16:03:48;8.00;1.00
4637;DHT22;2331;48.806;9.140;2022-12-19T16:06:15;8.00;1.00
4637;DHT22;2331;48.806;9.140;2022-12-19T16:08:42;8.00;1.00
4637;DHT22;2331;48.806;9.140;2022-12-19T16:11:16;8.00;1.00
4637;DHT22;2331;48.806;9.140;2022-12-19T16:13:48;8.00;1.00
4637;DHT22;2331;48.806;9.140;2022-12-19T16:16:16;8.00;1.00
4637;DHT22;2331;48.806;9.140;2022-12-19T16:18:43;8.00;1.00
4637;DHT22;2331;48.806;9.140;2022-12-19T16:21:17;8.00;1.00
4637;DHT22;2331;48.806;9.140;2022-12-19T16:23:45;8.00;1.00
4637;DHT22;2331;48.806;9.140;2022-12-19T16:26:22;8.00;1.00
4637;DHT22;2331;48.806;9.140;2022-12-19T16:28:52;8.00;1.00
4637;DHT22;2331;48.806;9.140;2022-12-19T16:31:23;8.00;1.00
4637;DHT22;2331;48.806;9.140;2022-12-19T16:33:50;7.90;1.00
4637;DHT22;2331;48.806;9.140;2022-12-19T16:36:17;7.90;1.00
4637;DHT22;2331;48.806;9.140;2022-12-19T16:38:44;7.80;1.00
4637;DHT22;2331;48.806;9.140;2022-12-19T16:41:14;7.80;1.00
4637;DHT22;2331;48.806;9.140;2022-12-19T16:43:43;7.80;1.00
4637;DHT22;2331;48.806;9.140;2022-12-19T16:46:16;7.70;1.00
4637;DHT22;2331;48.806;9.140;2022-12-19T16:48:44;7.70;1.00
4637;DHT22;2331;48.806;9.140;2022-12-19T16:51:17;7.60;1.00
4637;DHT22;2331;48.806;9.140;2022-12-19T16:53:44;7.60;1.00
4637;DHT22;2331;48.806;9.140;2022-12-19T16:56:20;7.60;1.00
4637;DHT22;2331;48.806;9.140;2022-12-19T16:58:47;7.50;1.00
4637;DHT22;2331;48.806;9.140;2022-12-19T17:01:15;7.50;1.00
4637;DHT22;2331;48.806;9.140;2022-12-19T17:03:43;7.50;1.00
4637;DHT22;2331;48.806;9.140;2022-12-19T17:06:11;7.40;1.00